createdAt,value
2018-09-22T00:00:03.626Z,48.46
2018-09-22T00:01:03.635Z,47.65
2018-09-22T00:02:03.603Z,48.35
2018-09-22T00:03:03.592Z,47.45
2018-09-22T00:04:03.581Z,47.55
2018-09-22T00:05:03.574Z,47.65
2018-09-22T00:06:03.587Z,48.05
2018-09-22T00:07:03.548Z,48.25
2018-09-22T00:08:03.534Z,48.05
2018-09-22T00:09:03.525Z,48.46
2018-09-22T00:10:03.512Z,48.25
2018-09-22T00:11:03.532Z,48.35
2018-09-22T00:12:03.491Z,48.35
2018-09-22T00:13:03.481Z,49.16
2018-09-22T00:14:03.469Z,47.85
2018-09-22T00:15:03.458Z,48.35
2018-09-22T00:16:03.474Z,47.55
2018-09-22T00:17:03.435Z,47.85
2018-09-22T00:18:03.423Z,47.75
2018-09-22T00:19:03.412Z,48.48
2018-09-22T00:20:03.402Z,47.77
2018-09-22T00:21:03.416Z,48.78
2018-09-22T00:22:03.384Z,48.18
2018-09-22T00:23:03.369Z,47.88
2018-09-22T00:24:03.357Z,48.18
2018-09-22T00:25:03.348Z,47.77
2018-09-22T00:26:03.364Z,48.28
2018-09-22T00:27:03.362Z,48.58
2018-09-22T00:28:03.314Z,48.38
2018-09-22T00:29:03.302Z,47.88
2018-09-22T00:30:03.291Z,47.77
2018-09-22T00:31:03.305Z,48.78
2018-09-22T00:32:03.268Z,48.38
2018-09-22T00:33:03.256Z,48.88
2018-09-22T00:34:03.246Z,49.28
2018-09-22T00:35:03.235Z,48.48
2018-09-22T00:36:03.226Z,48.78
2018-09-22T00:37:03.236Z,48.38
2018-09-22T00:38:03.207Z,48.18
2018-09-22T00:39:03.191Z,48.48
2018-09-22T00:40:03.180Z,48.58
2018-09-22T00:41:03.170Z,48.58
2018-09-22T00:42:03.180Z,49.08
2018-09-22T00:43:03.145Z,48.88
2018-09-22T00:44:03.137Z,47.58
2018-09-22T00:45:03.124Z,48.48
2018-09-22T00:46:03.115Z,49.48
2018-09-22T00:47:03.126Z,48.38
2018-09-22T00:48:03.089Z,48.78
2018-09-22T00:49:03.079Z,47.67
2018-09-22T00:50:03.069Z,48.78
2018-09-22T00:51:03.061Z,48.58
2018-09-22T00:52:03.070Z,47.77
2018-09-22T00:53:03.034Z,47.97
2018-09-22T00:54:03.022Z,48.68
2018-09-22T00:55:03.014Z,48.58
2018-09-22T00:56:03.000Z,49.08
2018-09-22T00:57:03.019Z,48.98
2018-09-22T00:58:02.978Z,48.18
2018-09-22T00:59:02.967Z,48.58
2018-09-22T01:00:02.956Z,48.48
2018-09-22T01:01:02.944Z,48.58
2018-09-22T01:02:02.958Z,48.58
2018-09-22T01:03:02.923Z,48.38
2018-09-22T01:04:02.912Z,48.68
2018-09-22T01:05:02.900Z,48.48
2018-09-22T01:06:02.895Z,48.48
2018-09-22T01:07:02.904Z,48.38
2018-09-22T01:08:02.867Z,48.58
2018-09-22T01:09:02.855Z,48.98
2018-09-22T01:10:02.846Z,48.98
2018-09-22T01:11:02.834Z,49.28
2018-09-22T01:12:02.847Z,49.08
2018-09-22T01:13:02.811Z,48.98
2018-09-22T01:14:02.801Z,48.28
2018-09-22T01:15:02.789Z,48.38
2018-09-22T01:16:02.780Z,48.98
2018-09-22T01:17:02.796Z,48.98
2018-09-22T01:18:02.755Z,47.97
2018-09-22T01:19:02.746Z,48.78
2018-09-22T01:20:02.735Z,48.68
2018-09-22T01:21:02.723Z,48.88
2018-09-22T01:22:02.735Z,48.88
2018-09-22T01:23:02.700Z,48.78
2018-09-22T01:24:02.690Z,48.68
2018-09-22T01:25:02.680Z,48.58
2018-09-22T01:26:02.667Z,48.38
2018-09-22T01:27:02.681Z,49.28
2018-09-22T01:28:02.644Z,48.68
2018-09-22T01:29:02.633Z,48.58
2018-09-22T01:30:02.622Z,48.18
2018-09-22T01:31:02.611Z,47.67
2018-09-22T01:32:02.627Z,47.88
2018-09-22T01:33:02.594Z,47.58
2018-09-22T01:34:02.580Z,48.38
2018-09-22T01:35:02.567Z,48.68
2018-09-22T01:36:02.556Z,48.98
2018-09-22T01:37:02.569Z,48.38
2018-09-22T01:38:02.533Z,48.88
2018-09-22T01:39:02.523Z,48.78
2018-09-22T01:40:02.510Z,48.38
2018-09-22T01:41:02.500Z,48.98
2018-09-22T01:42:02.513Z,48.18
2018-09-22T01:43:02.479Z,49.08
2018-09-22T01:44:02.466Z,48.38
2018-09-22T01:45:02.464Z,49.18
2018-09-22T01:46:02.443Z,48.48
2018-09-22T01:47:02.457Z,48.38
2018-09-22T01:48:02.421Z,48.48
2018-09-22T01:49:02.410Z,48.98
2018-09-22T01:50:02.398Z,48.98
2018-09-22T01:51:02.401Z,48.98
2018-09-22T01:52:02.403Z,48.58
2018-09-22T01:53:02.365Z,48.58
2018-09-22T01:54:02.355Z,49.08
2018-09-22T01:55:02.344Z,48.58
2018-09-22T01:56:02.334Z,48.78
2018-09-22T01:57:02.344Z,48.68
2018-09-22T01:58:02.312Z,49.18
2018-09-22T01:59:02.297Z,49.18
2018-09-22T02:00:02.288Z,48.98
2018-09-22T02:01:02.277Z,48.88
2018-09-22T02:02:02.291Z,49.28
2018-09-22T02:03:02.254Z,48.68
2018-09-22T02:04:02.244Z,48.38
2018-09-22T02:05:02.233Z,48.58
2018-09-22T02:06:02.223Z,48.48
2018-09-22T02:07:02.237Z,48.38
2018-09-22T02:08:02.199Z,48.38
2018-09-22T02:09:02.191Z,49.08
2018-09-22T02:10:02.178Z,49.08
2018-09-22T02:11:02.166Z,49.18
2018-09-22T02:12:02.179Z,48.48
2018-09-22T02:13:02.143Z,48.38
2018-09-22T02:14:02.179Z,49.18
2018-09-22T02:15:02.122Z,49.88
2018-09-22T02:16:02.109Z,49.30
2018-09-22T02:17:02.107Z,49.48
2018-09-22T02:18:02.112Z,48.40
2018-09-22T02:19:02.077Z,49.58
2018-09-22T02:20:02.068Z,49.01
2018-09-22T02:21:02.054Z,48.98
2018-09-22T02:22:02.071Z,48.68
2018-09-22T02:23:02.032Z,49.38
2018-09-22T02:24:02.021Z,48.98
2018-09-22T02:25:02.009Z,48.58
2018-09-22T02:26:01.999Z,48.88
2018-09-22T02:27:01.989Z,48.38
2018-09-22T02:28:02.005Z,48.98
2018-09-22T02:29:01.965Z,48.78
2018-09-22T02:30:02.020Z,49.08
2018-09-22T02:31:01.943Z,49.08
2018-09-22T02:32:01.936Z,49.08
2018-09-22T02:33:01.946Z,48.88
2018-09-22T02:34:01.911Z,49.28
2018-09-22T02:35:01.901Z,48.68
2018-09-22T02:36:01.888Z,49.48
2018-09-22T02:37:01.879Z,48.88
2018-09-22T02:38:01.893Z,48.38
2018-09-22T02:39:01.853Z,48.78
2018-09-22T02:40:01.845Z,48.38
2018-09-22T02:41:01.834Z,49.58
2018-09-22T02:42:01.821Z,48.68
2018-09-22T02:43:01.832Z,49.58
2018-09-22T02:44:01.798Z,49.18
2018-09-22T02:45:01.791Z,49.28
2018-09-22T02:46:01.781Z,48.68
2018-09-22T02:47:01.764Z,48.38
2018-09-22T02:48:01.779Z,48.38
2018-09-22T02:49:01.744Z,48.48
2018-09-22T02:50:01.733Z,49.18
2018-09-22T02:51:01.720Z,50.09
2018-09-22T02:52:01.710Z,49.38
2018-09-22T02:53:01.722Z,49.08
2018-09-22T02:54:01.687Z,49.08
2018-09-22T02:55:01.675Z,49.08
2018-09-22T02:56:01.665Z,49.48
2018-09-22T02:57:01.655Z,48.88
2018-09-22T02:58:01.667Z,48.78
2018-09-22T02:59:01.631Z,49.08
2018-09-22T03:00:01.631Z,49.48
2018-09-22T03:01:01.610Z,48.78
2018-09-22T03:02:01.598Z,48.58
2018-09-22T03:03:01.613Z,48.98
2018-09-22T03:04:01.580Z,49.18
2018-09-22T03:05:01.565Z,49.38
2018-09-22T03:06:01.557Z,49.18
2018-09-22T03:07:01.546Z,48.38
2018-09-22T03:08:01.556Z,48.58
2018-09-22T03:09:01.520Z,48.88
2018-09-22T03:10:01.516Z,49.38
2018-09-22T03:11:01.500Z,49.18
2018-09-22T03:12:01.488Z,49.18
2018-09-22T03:13:01.503Z,49.28
2018-09-22T03:14:01.464Z,49.18
2018-09-22T03:15:01.453Z,49.88
2018-09-22T03:16:01.442Z,49.38
2018-09-22T03:17:01.431Z,49.48
2018-09-22T03:18:01.443Z,49.48
2018-09-22T03:19:01.410Z,49.98
2018-09-22T03:20:01.401Z,48.58
2018-09-22T03:21:01.389Z,48.88
2018-09-22T03:22:01.375Z,49.28
2018-09-22T03:23:01.389Z,49.98
2018-09-22T03:24:01.353Z,48.48
2018-09-22T03:25:01.342Z,49.48
2018-09-22T03:26:01.331Z,49.48
2018-09-22T03:27:01.320Z,49.21
2018-09-22T03:28:01.333Z,48.48
2018-09-22T03:29:01.298Z,49.78
2018-09-22T03:30:01.287Z,49.18
2018-09-22T03:31:01.275Z,49.80
2018-09-22T03:32:01.265Z,48.68
2018-09-22T03:33:01.276Z,48.90
2018-09-22T03:34:01.248Z,48.30
2018-09-22T03:35:01.250Z,48.90
2018-09-22T03:36:01.221Z,48.80
2018-09-22T03:37:01.209Z,50.09
2018-09-22T03:38:01.223Z,50.11
2018-09-22T03:39:01.187Z,49.30
2018-09-22T03:40:01.176Z,49.58
2018-09-22T03:41:01.163Z,48.58
2018-09-22T03:42:01.153Z,49.21
2018-09-22T03:43:01.167Z,49.80
2018-09-22T03:44:01.140Z,49.30
2018-09-22T03:45:01.120Z,49.51
2018-09-22T03:46:01.108Z,50.11
2018-09-22T03:47:01.097Z,50.21
2018-09-22T03:48:01.111Z,49.80
2018-09-22T03:49:01.074Z,49.80
2018-09-22T03:50:01.064Z,48.90
2018-09-22T03:51:01.053Z,49.51
2018-09-22T03:52:01.041Z,50.01
2018-09-22T03:53:01.054Z,49.21
2018-09-22T03:54:01.020Z,50.01
2018-09-22T03:55:01.008Z,49.91
2018-09-22T03:56:00.997Z,49.40
2018-09-22T03:57:00.987Z,48.70
2018-09-22T03:58:00.979Z,49.80
2018-09-22T03:59:00.989Z,49.10
2018-09-22T04:00:00.955Z,49.51
2018-09-22T04:01:00.942Z,49.30
2018-09-22T04:02:00.935Z,49.51
2018-09-22T04:03:00.942Z,49.91
2018-09-22T04:04:00.908Z,49.60
2018-09-22T04:05:00.896Z,49.80
2018-09-22T04:06:00.886Z,49.58
2018-09-22T04:07:00.873Z,50.41
2018-09-22T04:08:00.865Z,49.80
2018-09-22T04:09:00.877Z,50.11
2018-09-22T04:10:00.844Z,49.48
2018-09-22T04:11:00.829Z,49.91
2018-09-22T04:12:00.818Z,49.48
2018-09-22T04:13:00.808Z,49.60
2018-09-22T04:14:00.822Z,50.01
2018-09-22T04:15:00.789Z,49.88
2018-09-22T04:16:00.777Z,50.09
2018-09-22T04:17:00.763Z,49.98
2018-09-22T04:18:00.754Z,49.08
2018-09-22T04:19:00.764Z,50.18
2018-09-22T04:20:00.729Z,49.88
2018-09-22T04:21:00.718Z,49.21
2018-09-22T04:22:00.708Z,49.78
2018-09-22T04:23:00.699Z,50.21
2018-09-22T04:24:00.714Z,50.01
2018-09-22T04:25:00.683Z,50.31
2018-09-22T04:26:00.661Z,49.51
2018-09-22T04:27:00.651Z,50.09
2018-09-22T04:28:00.640Z,49.28
2018-09-22T04:29:00.654Z,49.88
2018-09-22T04:30:00.629Z,49.38
2018-09-22T04:31:00.607Z,49.58
2018-09-22T04:32:00.595Z,49.38
2018-09-22T04:33:00.613Z,49.10
2018-09-22T04:34:00.597Z,50.01
2018-09-22T04:35:00.565Z,49.10
2018-09-22T04:36:00.552Z,49.80
2018-09-22T04:37:00.540Z,49.80
2018-09-22T04:38:00.528Z,48.60
2018-09-22T04:39:00.540Z,50.01
2018-09-22T04:40:00.507Z,49.40
2018-09-22T04:41:00.495Z,50.11
2018-09-22T04:42:00.485Z,49.01
2018-09-22T04:43:00.477Z,49.51
2018-09-22T04:44:00.486Z,49.40
2018-09-22T04:45:00.451Z,49.51
2018-09-22T04:46:00.440Z,50.21
2018-09-22T04:47:00.429Z,50.61
2018-09-22T04:48:00.417Z,49.51
2018-09-22T04:49:00.430Z,49.60
2018-09-22T04:50:00.393Z,49.10
2018-09-22T04:51:00.384Z,49.60
2018-09-22T04:52:00.372Z,49.71
2018-09-22T04:53:00.363Z,50.21
2018-09-22T04:54:00.375Z,49.40
2018-09-22T04:55:00.339Z,49.30
2018-09-22T04:56:00.328Z,48.70
2018-09-22T04:57:00.317Z,49.91
2018-09-22T04:58:00.309Z,49.80
2018-09-22T04:59:00.322Z,48.50
2018-09-22T05:00:00.285Z,49.10
2018-09-22T05:01:00.275Z,49.21
2018-09-22T05:02:00.263Z,49.13
2018-09-22T05:03:00.253Z,49.33
2018-09-22T05:04:00.267Z,50.03
2018-09-22T05:05:00.227Z,50.84
2018-09-22T05:06:00.217Z,49.22
2018-09-22T05:07:00.204Z,50.33
2018-09-22T05:08:00.198Z,49.93
2018-09-22T05:09:00.213Z,49.63
2018-09-22T05:10:00.172Z,49.63
2018-09-22T05:11:00.160Z,50.33
2018-09-22T05:12:00.149Z,49.73
2018-09-22T05:13:00.138Z,50.23
2018-09-22T05:14:00.152Z,49.53
2018-09-22T05:15:00.116Z,49.13
2018-09-22T05:16:00.105Z,49.91
2018-09-22T05:17:00.138Z,49.13
2018-09-22T05:18:00.090Z,50.03
2018-09-22T05:19:00.099Z,50.13
2018-09-22T05:20:00.061Z,50.53
2018-09-22T05:21:00.049Z,50.23
2018-09-22T05:22:00.040Z,50.73
2018-09-22T05:23:00.033Z,50.01
2018-09-22T05:24:00.041Z,50.53
2018-09-22T05:25:00.005Z,50.21
2018-09-22T05:25:59.995Z,49.71
2018-09-22T05:26:59.985Z,49.21
2018-09-22T05:27:59.971Z,49.91
2018-09-22T05:28:59.989Z,49.91
2018-09-22T05:29:59.952Z,49.91
2018-09-22T05:30:59.937Z,49.51
2018-09-22T05:31:59.927Z,49.80
2018-09-22T05:32:59.924Z,49.71
2018-09-22T05:33:59.928Z,49.60
2018-09-22T05:34:59.893Z,49.71
2018-09-22T05:35:59.885Z,49.22
2018-09-22T05:36:59.875Z,49.51
2018-09-22T05:37:59.863Z,50.01
2018-09-22T05:38:59.910Z,49.91
2018-09-22T05:39:59.839Z,50.23
2018-09-22T05:40:59.827Z,50.31
2018-09-22T05:41:59.815Z,50.21
2018-09-22T05:42:59.804Z,50.11
2018-09-22T05:43:59.799Z,50.21
2018-09-22T05:44:59.808Z,50.31
2018-09-22T05:45:59.771Z,49.22
2018-09-22T05:46:59.760Z,49.21
2018-09-22T05:47:59.749Z,49.21
2018-09-22T05:48:59.761Z,49.21
2018-09-22T05:49:59.726Z,49.80
2018-09-22T05:50:59.715Z,50.11
2018-09-22T05:51:59.705Z,49.80
2018-09-22T05:52:59.693Z,50.33
2018-09-22T05:53:59.685Z,49.93
2018-09-22T05:54:59.695Z,49.91
2018-09-22T05:55:59.658Z,49.51
2018-09-22T05:56:59.670Z,50.31
2018-09-22T05:57:59.676Z,50.41
2018-09-22T05:58:59.627Z,49.91
2018-09-22T05:59:59.638Z,50.11
2018-09-22T06:00:59.605Z,49.60
2018-09-22T06:01:59.594Z,49.51
2018-09-22T06:02:59.586Z,49.71
2018-09-22T06:03:59.709Z,50.31
2018-09-22T06:04:59.583Z,49.91
2018-09-22T06:05:59.549Z,49.10
2018-09-22T06:06:59.535Z,50.21
2018-09-22T06:07:59.529Z,49.83
2018-09-22T06:08:59.516Z,50.31
2018-09-22T06:09:59.527Z,50.01
2018-09-22T06:10:59.491Z,50.31
2018-09-22T06:11:59.482Z,50.01
2018-09-22T06:12:59.471Z,49.51
2018-09-22T06:13:59.462Z,49.40
2018-09-22T06:14:59.471Z,50.01
2018-09-22T06:15:59.437Z,50.01
2018-09-22T06:16:59.424Z,49.80
2018-09-22T06:17:59.414Z,49.80
2018-09-22T06:18:59.403Z,50.21
2018-09-22T06:19:59.416Z,49.71
2018-09-22T06:20:59.382Z,49.21
2018-09-22T06:21:59.370Z,49.21
2018-09-22T06:22:59.429Z,49.80
2018-09-22T06:23:59.348Z,49.51
2018-09-22T06:24:59.360Z,49.91
2018-09-22T06:25:59.327Z,49.71
2018-09-22T06:26:59.314Z,49.91
2018-09-22T06:27:59.353Z,49.80
2018-09-22T06:28:59.294Z,49.80
2018-09-22T06:29:59.307Z,50.01
2018-09-22T06:30:59.269Z,49.88
2018-09-22T06:31:59.258Z,48.98
2018-09-22T06:32:59.249Z,49.18
2018-09-22T06:33:59.236Z,49.98
2018-09-22T06:34:59.250Z,50.01
2018-09-22T06:35:59.214Z,50.09
2018-09-22T06:36:59.207Z,49.18
2018-09-22T06:37:59.191Z,49.88
2018-09-22T06:38:59.183Z,49.18
2018-09-22T06:39:59.194Z,49.38
2018-09-22T06:40:59.165Z,49.91
2018-09-22T06:41:59.146Z,50.18
2018-09-22T06:42:59.137Z,48.58
2018-09-22T06:43:59.124Z,49.98
2018-09-22T06:44:59.142Z,48.68
2018-09-22T06:45:59.103Z,49.51
2018-09-22T06:46:59.092Z,50.01
2018-09-22T06:47:59.081Z,49.21
2018-09-22T06:48:59.069Z,49.28
2018-09-22T06:49:59.083Z,49.18
2018-09-22T06:50:59.047Z,48.90
2018-09-22T06:51:59.036Z,48.58
2018-09-22T06:52:59.025Z,49.28
2018-09-22T06:53:59.016Z,49.58
2018-09-22T06:54:59.107Z,49.40
2018-09-22T06:55:58.991Z,48.60
2018-09-22T06:56:58.981Z,49.28
2018-09-22T06:57:58.969Z,48.88
2018-09-22T06:58:58.958Z,49.08
2018-09-22T06:59:58.973Z,49.38
2018-09-22T07:00:58.935Z,48.48
2018-09-22T07:01:58.924Z,49.18
2018-09-22T07:02:58.913Z,48.38
2018-09-22T07:03:58.905Z,49.18
2018-09-22T07:04:58.916Z,49.38
2018-09-22T07:05:58.881Z,48.38
2018-09-22T07:06:58.871Z,49.48
2018-09-22T07:07:58.857Z,49.78
2018-09-22T07:08:58.846Z,48.88
2018-09-22T07:09:58.859Z,48.88
2018-09-22T07:10:58.824Z,49.18
2018-09-22T07:11:58.813Z,48.88
2018-09-22T07:12:58.801Z,48.88
2018-09-22T07:13:58.906Z,48.88
2018-09-22T07:14:58.804Z,49.18
2018-09-22T07:15:58.770Z,48.98
2018-09-22T07:16:58.759Z,48.78
2018-09-22T07:17:58.745Z,48.88
2018-09-22T07:18:58.736Z,49.28
2018-09-22T07:19:58.749Z,48.78
2018-09-22T07:20:58.712Z,48.78
2018-09-22T07:21:58.707Z,48.88
2018-09-22T07:22:58.690Z,48.98
2018-09-22T07:23:58.682Z,48.68
2018-09-22T07:24:58.693Z,48.58
2018-09-22T07:25:58.657Z,48.88
2018-09-22T07:26:58.650Z,49.08
2018-09-22T07:27:58.635Z,48.68
2018-09-22T07:28:58.624Z,48.88
2018-09-22T07:29:58.614Z,49.18
2018-09-22T07:30:58.686Z,48.88
2018-09-22T07:31:58.593Z,48.98
2018-09-22T07:32:58.581Z,48.88
2018-09-22T07:33:58.569Z,48.68
2018-09-22T07:34:58.563Z,48.38
2018-09-22T07:35:58.572Z,48.38
2018-09-22T07:36:58.535Z,48.78
2018-09-22T07:37:58.525Z,48.88
2018-09-22T07:38:58.514Z,49.08
2018-09-22T07:39:58.504Z,48.88
2018-09-22T07:40:58.516Z,48.68
2018-09-22T07:41:58.481Z,48.58
2018-09-22T07:42:58.470Z,48.48
2018-09-22T07:43:58.458Z,48.48
2018-09-22T07:44:58.449Z,47.77
2018-09-22T07:45:58.462Z,48.58
2018-09-22T07:46:58.425Z,48.48
2018-09-22T07:47:58.418Z,48.48
2018-09-22T07:48:58.403Z,48.68
2018-09-22T07:49:58.395Z,48.48
2018-09-22T07:50:58.407Z,48.58
2018-09-22T07:51:58.372Z,48.58
2018-09-22T07:52:58.359Z,48.68
2018-09-22T07:53:58.349Z,48.55
2018-09-22T07:54:58.337Z,48.38
2018-09-22T07:55:58.352Z,48.98
2018-09-22T07:56:58.335Z,48.75
2018-09-22T07:57:58.305Z,48.25
2018-09-22T07:58:58.293Z,48.35
2018-09-22T07:59:58.301Z,47.85
2018-09-22T08:00:58.296Z,48.75
2018-09-22T08:01:58.260Z,47.65
2018-09-22T08:02:58.249Z,48.35
2018-09-22T08:03:58.239Z,48.55
2018-09-22T08:04:58.229Z,48.35
2018-09-22T08:05:58.241Z,48.55
2018-09-22T08:06:58.206Z,48.55
2018-09-22T08:07:58.195Z,48.55
2018-09-22T08:08:58.184Z,47.85
2018-09-22T08:09:58.175Z,47.45
2018-09-22T08:10:58.184Z,47.65
2018-09-22T08:11:58.151Z,47.85
2018-09-22T08:12:58.141Z,47.75
2018-09-22T08:13:58.127Z,48.55
2018-09-22T08:14:58.118Z,48.66
2018-09-22T08:15:58.131Z,47.75
2018-09-22T08:16:58.096Z,47.85
2018-09-22T08:17:58.084Z,48.55
2018-09-22T08:18:58.072Z,48.35
2018-09-22T08:19:58.061Z,47.83
2018-09-22T08:20:58.075Z,48.55
2018-09-22T08:21:58.039Z,48.05
2018-09-22T08:22:58.028Z,46.95
2018-09-22T08:23:58.017Z,47.83
2018-09-22T08:24:58.005Z,47.23
2018-09-22T08:25:58.020Z,47.63
2018-09-22T08:26:57.986Z,46.62
2018-09-22T08:27:57.973Z,46.62
2018-09-22T08:28:57.964Z,47.43
2018-09-22T08:29:57.952Z,47.63
2018-09-22T08:30:57.964Z,47.73
2018-09-22T08:31:57.931Z,47.43
2018-09-22T08:32:57.919Z,47.53
2018-09-22T08:33:57.907Z,46.93
2018-09-22T08:34:57.898Z,45.12
2018-09-22T08:35:57.958Z,46.35
2018-09-22T08:36:58.029Z,47.13
2018-09-22T08:37:57.863Z,47.63
2018-09-22T08:38:57.853Z,47.43
2018-09-22T08:39:57.840Z,46.53
2018-09-22T08:40:57.854Z,46.12
2018-09-22T08:41:57.818Z,46.93
2018-09-22T08:42:57.806Z,46.93
2018-09-22T08:43:57.885Z,46.73
2018-09-22T08:44:57.817Z,47.53
2018-09-22T08:45:57.799Z,46.42
2018-09-22T08:46:57.764Z,46.62
2018-09-22T08:47:57.752Z,46.33
2018-09-22T08:48:57.741Z,46.53
2018-09-22T08:49:57.741Z,46.91
2018-09-22T08:50:57.796Z,46.61
2018-09-22T08:51:57.710Z,46.41
2018-09-22T08:52:57.696Z,47.11
2018-09-22T08:53:57.687Z,46.61
2018-09-22T08:54:57.677Z,46.70
2018-09-22T08:55:57.727Z,46.91
2018-09-22T08:56:57.653Z,46.50
2018-09-22T08:57:57.682Z,46.50
2018-09-22T08:58:57.635Z,46.50
2018-09-22T08:59:57.620Z,46.61
2018-09-22T09:00:57.632Z,46.81
2018-09-22T09:01:57.599Z,46.70
2018-09-22T09:02:57.588Z,46.50
2018-09-22T09:03:57.576Z,46.81
2018-09-22T09:04:57.600Z,46.61
2018-09-22T09:05:57.574Z,47.00
2018-09-22T09:06:57.567Z,46.50
2018-09-22T09:07:57.532Z,46.61
2018-09-22T09:08:57.523Z,47.71
2018-09-22T09:09:57.509Z,46.61
2018-09-22T09:10:57.524Z,47.00
2018-09-22T09:11:57.495Z,46.50
2018-09-22T09:12:57.477Z,46.70
2018-09-22T09:13:57.484Z,46.70
2018-09-22T09:14:57.455Z,46.70
2018-09-22T09:15:57.449Z,46.91
2018-09-22T09:16:57.476Z,46.38
2018-09-22T09:17:57.423Z,46.48
2018-09-22T09:18:57.413Z,46.68
2018-09-22T09:19:57.400Z,47.19
2018-09-22T09:20:57.393Z,46.61
2018-09-22T09:21:57.403Z,46.58
2018-09-22T09:22:57.365Z,42.68
2018-09-22T09:23:57.354Z,44.00
2018-09-22T09:24:57.342Z,45.00
2018-09-22T09:25:57.335Z,45.50
2018-09-22T09:26:57.347Z,46.00
2018-09-22T09:27:57.311Z,46.53
2018-09-22T09:28:57.299Z,46.62
2018-09-22T09:29:57.290Z,46.33
2018-09-22T09:30:57.280Z,46.53
2018-09-22T09:31:57.291Z,45.83
2018-09-22T09:32:57.257Z,46.12
2018-09-22T09:33:57.245Z,45.42
2018-09-22T09:34:57.233Z,45.42
2018-09-22T09:35:57.222Z,45.42
2018-09-22T09:36:57.238Z,46.42
2018-09-22T09:37:57.202Z,46.33
2018-09-22T09:38:57.190Z,46.33
2018-09-22T09:39:57.178Z,46.12
2018-09-22T09:40:57.167Z,46.23
2018-09-22T09:41:57.179Z,46.33
2018-09-22T09:42:57.144Z,46.12
2018-09-22T09:43:57.136Z,46.53
2018-09-22T09:44:57.124Z,46.42
2018-09-22T09:45:57.112Z,45.62
2018-09-22T09:46:57.124Z,45.83
2018-09-22T09:47:57.090Z,45.53
2018-09-22T09:48:57.078Z,46.12
2018-09-22T09:49:57.068Z,46.33
2018-09-22T09:50:57.056Z,46.62
2018-09-22T09:51:57.069Z,45.92
2018-09-22T09:52:57.033Z,46.33
2018-09-22T09:53:57.022Z,45.32
2018-09-22T09:54:57.088Z,45.12
2018-09-22T09:55:57.001Z,45.12
2018-09-22T09:56:57.016Z,46.33
2018-09-22T09:57:56.979Z,47.03
2018-09-22T09:58:56.967Z,46.62
2018-09-22T09:59:56.957Z,46.53
2018-09-22T10:00:56.946Z,46.53
2018-09-22T10:01:56.957Z,45.42
2018-09-22T10:02:56.922Z,46.03
2018-09-22T10:03:56.912Z,45.32
2018-09-22T10:04:56.900Z,46.23
2018-09-22T10:05:56.890Z,46.12
2018-09-22T10:06:56.902Z,46.73
2018-09-22T10:07:56.868Z,46.33
2018-09-22T10:08:56.856Z,45.92
2018-09-22T10:09:56.845Z,46.62
2018-09-22T10:10:56.832Z,46.62
2018-09-22T10:11:56.846Z,46.62
2018-09-22T10:12:56.811Z,46.73
2018-09-22T10:13:56.799Z,46.23
2018-09-22T10:14:56.795Z,45.60
2018-09-22T10:15:56.777Z,46.70
2018-09-22T10:16:56.791Z,46.83
2018-09-22T10:17:56.756Z,45.83
2018-09-22T10:18:56.750Z,45.62
2018-09-22T10:19:56.734Z,45.62
2018-09-22T10:20:56.722Z,46.53
2018-09-22T10:21:56.736Z,44.82
2018-09-22T10:22:56.699Z,45.42
2018-09-22T10:23:56.688Z,46.33
2018-09-22T10:24:56.678Z,46.12
2018-09-22T10:25:56.666Z,45.32
2018-09-22T10:26:56.678Z,44.10
2018-09-22T10:27:56.697Z,45.00
2018-09-22T10:28:56.699Z,45.10
2018-09-22T10:29:56.622Z,45.60
2018-09-22T10:30:56.611Z,45.60
2018-09-22T10:31:56.623Z,44.50
2018-09-22T10:32:56.589Z,44.80
2018-09-22T10:33:56.575Z,44.80
2018-09-22T10:34:56.566Z,44.40
2018-09-22T10:35:56.557Z,44.10
2018-09-22T10:36:56.569Z,44.10
2018-09-22T10:37:56.531Z,45.50
2018-09-22T10:38:56.525Z,44.70
2018-09-22T10:39:56.510Z,44.40
2018-09-22T10:40:56.500Z,45.10
2018-09-22T10:41:56.513Z,44.80
2018-09-22T10:42:56.477Z,44.20
2018-09-22T10:43:56.466Z,42.88
2018-09-22T10:44:56.455Z,44.08
2018-09-22T10:45:56.445Z,42.57
2018-09-22T10:46:56.456Z,43.88
2018-09-22T10:47:56.421Z,43.10
2018-09-22T10:48:56.409Z,42.68
2018-09-22T10:49:56.399Z,42.18
2018-09-22T10:50:56.391Z,43.18
2018-09-22T10:51:56.400Z,42.27
2018-09-22T10:52:56.412Z,42.47
2018-09-22T10:53:56.355Z,41.77
2018-09-22T10:54:56.344Z,41.88
2018-09-22T10:55:56.334Z,42.57
2018-09-22T10:56:56.323Z,42.47
2018-09-22T10:57:56.336Z,42.18
2018-09-22T10:58:56.299Z,41.85
2018-09-22T10:59:56.289Z,42.27
2018-09-22T11:00:56.276Z,41.88
2018-09-22T11:01:56.290Z,43.05
2018-09-22T11:02:56.254Z,41.66
2018-09-22T11:03:56.242Z,40.55
2018-09-22T11:04:56.232Z,40.85
2018-09-22T11:05:56.223Z,42.96
2018-09-22T11:06:56.312Z,41.46
2018-09-22T11:07:56.227Z,41.15
2018-09-22T11:08:56.189Z,42.96
2018-09-22T11:09:56.175Z,42.46
2018-09-22T11:10:56.167Z,41.66
2018-09-22T11:11:56.156Z,42.25
2018-09-22T11:12:56.166Z,42.05
2018-09-22T11:13:56.132Z,41.15
2018-09-22T11:14:56.120Z,42.66
2018-09-22T11:15:56.108Z,42.25
2018-09-22T11:16:56.100Z,42.05
2018-09-22T11:17:56.113Z,41.93
2018-09-22T11:18:56.077Z,41.83
2018-09-22T11:19:56.065Z,41.83
2018-09-22T11:20:56.055Z,41.83
2018-09-22T11:21:56.042Z,41.43
2018-09-22T11:22:56.056Z,42.33
2018-09-22T11:23:56.020Z,40.53
2018-09-22T11:24:56.009Z,42.13
2018-09-22T11:25:55.998Z,42.33
2018-09-22T11:26:56.038Z,41.63
2018-09-22T11:27:55.999Z,42.54
2018-09-22T11:28:55.966Z,40.83
2018-09-22T11:29:55.953Z,41.43
2018-09-22T11:30:55.942Z,41.74
2018-09-22T11:31:55.933Z,40.83
2018-09-22T11:32:55.944Z,41.43
2018-09-22T11:33:55.909Z,41.53
2018-09-22T11:34:55.898Z,41.43
2018-09-22T11:35:55.887Z,41.74
2018-09-22T11:36:55.875Z,42.13
2018-09-22T11:37:55.889Z,41.83
2018-09-22T11:38:55.855Z,42.24
2018-09-22T11:39:55.841Z,42.33
2018-09-22T11:40:55.834Z,42.74
2018-09-22T11:41:55.820Z,42.63
2018-09-22T11:42:55.834Z,42.03
2018-09-22T11:43:55.796Z,42.13
2018-09-22T11:44:55.787Z,42.13
2018-09-22T11:45:55.774Z,42.43
2018-09-22T11:46:55.764Z,42.63
2018-09-22T11:47:55.779Z,42.54
2018-09-22T11:48:55.741Z,42.24
2018-09-22T11:49:55.730Z,41.93
2018-09-22T11:50:55.721Z,42.24
2018-09-22T11:51:55.708Z,41.93
2018-09-22T11:52:55.721Z,42.24
2018-09-22T11:53:55.687Z,42.24
2018-09-22T11:54:55.675Z,42.33
2018-09-22T11:55:55.664Z,42.83
2018-09-22T11:56:55.652Z,42.93
2018-09-22T11:57:55.665Z,42.74
2018-09-22T11:58:55.630Z,42.43
2018-09-22T11:59:55.620Z,40.83
2018-09-22T12:00:55.611Z,42.13
2018-09-22T12:01:55.653Z,40.93
2018-09-22T12:02:55.613Z,42.13
2018-09-22T12:03:55.576Z,42.83
2018-09-22T12:04:55.563Z,42.43
2018-09-22T12:05:55.623Z,41.74
2018-09-22T12:06:55.543Z,43.33
2018-09-22T12:07:55.554Z,44.24
2018-09-22T12:08:55.520Z,43.84
2018-09-22T12:09:55.508Z,43.76
2018-09-22T12:10:55.499Z,42.96
2018-09-22T12:11:55.490Z,44.35
2018-09-22T12:12:55.499Z,44.06
2018-09-22T12:13:55.466Z,43.76
2018-09-22T12:14:55.453Z,43.26
2018-09-22T12:15:55.442Z,44.16
2018-09-22T12:16:55.433Z,44.28
2018-09-22T12:17:55.443Z,44.46
2018-09-22T12:18:55.413Z,43.85
2018-09-22T12:19:55.398Z,45.16
2018-09-22T12:20:55.387Z,44.35
2018-09-22T12:21:55.376Z,44.26
2018-09-22T12:22:55.389Z,44.56
2018-09-22T12:23:55.352Z,43.76
2018-09-22T12:24:55.345Z,44.76
2018-09-22T12:25:55.330Z,45.26
2018-09-22T12:26:55.319Z,44.46
2018-09-22T12:27:55.334Z,44.86
2018-09-22T12:28:55.298Z,43.76
2018-09-22T12:29:55.286Z,45.06
2018-09-22T12:30:55.275Z,45.78
2018-09-22T12:31:55.316Z,46.88
2018-09-22T12:32:55.277Z,48.38
2018-09-22T12:33:55.241Z,49.99
2018-09-22T12:34:55.230Z,48.91
2018-09-22T12:35:55.219Z,48.99
2018-09-22T12:36:55.207Z,49.11
2018-09-22T12:37:55.198Z,50.71
2018-09-22T12:38:55.210Z,51.32
2018-09-22T12:39:55.174Z,51.82
2018-09-22T12:40:55.163Z,51.42
2018-09-22T12:41:55.152Z,51.32
2018-09-22T12:42:55.166Z,51.62
2018-09-22T12:43:55.129Z,51.32
2018-09-22T12:44:55.122Z,51.42
2018-09-22T12:45:55.127Z,51.32
2018-09-22T12:46:55.098Z,50.71
2018-09-22T12:47:55.088Z,51.12
2018-09-22T12:48:55.099Z,50.62
2018-09-22T12:49:55.064Z,50.71
2018-09-22T12:50:55.052Z,50.81
2018-09-22T12:51:55.044Z,50.99